ADDS METAR Data INFO
IDs: Format: Raw Decoded Include TAF

Data at: 0837 UTC 21 Oct 2017

KGDV 210756Z AUTO 28019G24KT 10SM CLR 08/02 A2949 RMK AO2 PK WND 28027/0719 SLP977 T00780022
KGDV 210656Z AUTO 29017G24KT 10SM CLR 08/03 A2945 RMK AO2 PK WND 28028/0625 SLP968 T00780033 402720039
KGDV 210556Z AUTO 30019G28KT 10SM CLR 09/05 A2940 RMK AO2 PK WND 30032/0525 RAB0457E20 SLP951 P0000 60000 T00890050 10194 20089 51035
KGDV 210456Z AUTO 30018G25KT 10SM FEW065 SCT090 BKN110 13/03 A2937 RMK AO2 PK WND 29037/0359 SLP940 T01330033 TSNO
KGDV 210356Z AUTO 28030G37KT 10SM CLR 15/01 A2937 RMK AO2 PK WND 28038/0341 SLP942 T01500006
KGDV 210256Z AUTO 29026G37KT 10SM CLR 17/M01 A2929 RMK AO2 PK WND 29043/0236 PRESRR SLP912 T01721011 53029
KGDV 210156Z AUTO 29010KT 10SM CLR 17/M01 A2921 RMK AO2 SLP892 T01721006 TSNO
KGDV 210056Z AUTO 29009KT 9SM CLR 14/01 A2920 RMK AO2 SLP888 T01440006
KGDV 202356Z AUTO 30006KT 10SM CLR 19/03 A2919 RMK AO2 SLP883 T01890028 10272 20189 56008
KGDV 202256Z AUTO 00000KT 10SM CLR 26/04 A2920 RMK AO2 SLP880 T02560039
KGDV 202156Z AUTO 16005KT 10SM CLR 26/01 A2920 RMK AO2 SLP876 T02610006
KGDV 202056Z AUTO 14007KT 10SM CLR 27/01 A2922 RMK AO2 SLP883 T02670006 56029
KGDV 201956Z AUTO 17009KT 10SM CLR 25/01 A2924 RMK AO2 SLP892 T02500006
KGDV 201856Z AUTO 18006KT 10SM CLR 22/00 A2928 RMK AO2 SLP905 T02220000
KGDV 201756Z AUTO 17007KT 10SM CLR 19/01 A2931 RMK AO2 SLP920 T01890006 10189 20050 58027
KGDV 201656Z AUTO 18007KT 10SM CLR 16/00 A2934 RMK AO2 SLP928 T01610000
KGDV 201556Z AUTO 18009KT 10SM CLR 12/01 A2937 RMK AO2 SLP942 T01220006
KGDV 201456Z AUTO 21012KT 10SM CLR 11/M01 A2940 RMK AO2 SLP954 T01061011 56015
KGDV 201356Z AUTO 19008KT 10SM CLR 05/M02 A2941 RMK AO2 SLP962 T00501017
KGDV 201256Z AUTO 21009KT 10SM CLR 07/M02 A2943 RMK AO2 SLP962 T00721017
KGDV 201156Z AUTO 22010KT 10SM CLR 06/M01 A2944 RMK AO2 SLP967 T00561011 10128 20039 56009
KGDV 201056Z AUTO 20009KT 10SM CLR 04/M02 A2945 RMK AO2 SLP968 T00391017
KGDV 200956Z AUTO 21005KT 10SM CLR 07/M02 A2946 RMK AO2 SLP966 T00721017
KGDV 200856Z AUTO 00000KT 10SM CLR 08/M02 A2947 RMK AO2 SLP971 T00781017 56022
KGDV 200756Z AUTO 21004KT 10SM CLR 07/M02 A2949 RMK AO2 SLP980 T00721017
KGDV 200656Z AUTO 00000KT 10SM CLR 10/M02 A2952 RMK AO2 SLP988 T01001017 402610056
KGDV 200556Z AUTO 02003KT 10SM CLR 09/M01 A2954 RMK AO2 SLP999 T00891006 10222 20072 58022
KGDV 200456Z AUTO 00000KT 10SM CLR 13/M01 A2957 RMK AO2 SLP006 T01331011 TSNO
KGDV 200356Z AUTO 08003KT 10SM CLR 14/M01 A2959 RMK AO2 SLP016 T01391006
KGDV 200256Z AUTO 01003KT 10SM CLR 12/M01 A2961 RMK AO2 SLP028 T01221006 56012
KGDV 200156Z AUTO 09005KT 10SM CLR 14/M01 A2962 RMK AO2 SLP033 T01441006
KGDV 200056Z AUTO 00000KT 10SM CLR 18/M01 A2963 RMK AO2 SLP035 T01781006
KGDV 192356Z AUTO 12004KT 10SM CLR 21/M01 A2965 RMK AO2 SLP036 T02111006 10261 20200 57013
KGDV 192256Z AUTO 19007KT 10SM CLR 24/01 A2966 RMK AO2 SLP038 T02440006
KGDV 192156Z AUTO 20010KT 10SM CLR 26/00 A2967 RMK AO2 SLP042 T02560000
KGDV 192056Z AUTO 20009KT 10SM CLR 26/00 A2969 RMK AO2 SLP048 T02560000 56018